Time;durP1;ratioP1;P1;durP2;ratioP2;P2;SDS_P1;SDS_P2;PMS_P1;PMS_P2;Temp;Humidity;BMP_temperature;BMP_pressure;BME280_temperature;BME280_humidity;BME280_pressure;Samples;Min_cycle;Max_cycle;Signal;HPM_P1;HPM_P2
2021/08/02 00:01:02;;;;;;;5.35;3.40;;;;;;;19.42;100.00;96055.88;5029335;28;20524;-58
2021/08/02 00:03:39;;;;;;;3.60;3.30;;;;;;;19.70;100.00;96052.13;5026357;28;20073;-60
2021/08/02 00:06:09;;;;;;;5.80;3.40;;;;;;;19.92;100.00;96055.31;5025791;28;20065;-62
2021/08/02 00:08:57;;;;;;;3.83;3.15;;;;;;;19.65;100.00;96054.63;5023428;28;20072;-62
2021/08/02 00:11:33;;;;;;;6.85;3.25;;;;;;;19.53;100.00;96056.25;5020949;28;20076;-60
2021/08/02 00:14:05;;;;;;;6.80;3.20;;;;;;;19.57;100.00;96052.13;5030997;28;20106;-62
2021/08/02 00:16:34;;;;;;;3.35;3.05;;;;;;;19.09;100.00;96069.31;5017170;28;20335;-61
2021/08/02 00:19:03;;;;;;;4.80;3.10;;;;;;;19.61;100.00;96067.56;5019200;28;20069;-61
2021/08/02 00:21:32;;;;;;;4.45;3.00;;;;;;;19.03;100.00;96062.13;5026812;28;20104;-62
2021/08/02 00:24:02;;;;;;;3.25;2.95;;;;;;;19.19;100.00;96060.88;5010255;28;20037;-61
2021/08/02 00:26:30;;;;;;;5.70;3.35;;;;;;;18.77;100.00;96070.16;5020852;28;20061;-60
2021/08/02 00:28:59;;;;;;;5.93;3.17;;;;;;;19.67;100.00;96064.06;5035513;28;20084;-61
2021/08/02 00:31:28;;;;;;;3.67;2.90;;;;;;;19.53;100.00;96066.97;5024929;28;20077;-60
2021/08/02 00:33:57;;;;;;;4.07;3.33;;;;;;;19.72;100.00;96065.28;5022408;28;20065;-62
2021/08/02 00:36:33;;;;;;;3.55;3.00;;;;;;;19.30;100.00;96072.75;5024746;28;20547;-59
2021/08/02 00:39:06;;;;;;;4.53;3.20;;;;;;;20.00;100.00;96068.47;5029847;28;20037;-61
2021/08/02 00:42:10;;;;;;;4.28;3.40;;;;;;;19.88;100.00;96067.47;5015442;28;20061;-63
2021/08/02 00:44:55;;;;;;;3.78;2.97;;;;;;;19.09;100.00;96074.66;4997235;28;20073;-60
2021/08/02 00:47:24;;;;;;;3.80;2.70;;;;;;;19.09;100.00;96071.16;5021714;28;20111;-61
2021/08/02 00:49:56;;;;;;;4.03;2.80;;;;;;;19.25;100.00;96068.06;5024168;28;20092;-59
2021/08/02 00:52:27;;;;;;;3.97;2.70;;;;;;;18.95;100.00;96068.50;5023797;28;20127;-61
2021/08/02 00:54:59;;;;;;;5.18;2.50;;;;;;;18.78;100.00;96069.94;5025873;28;20095;-60
2021/08/02 00:57:30;;;;;;;2.75;2.50;;;;;;;18.24;100.00;96068.22;5018966;28;20455;-61
2021/08/02 01:00:04;;;;;;;4.25;2.47;;;;;;;18.80;100.00;96065.22;5026946;28;20073;-62
2021/08/02 01:02:37;;;;;;;3.05;2.67;;;;;;;18.54;100.00;96079.34;5016427;28;20652;-62
2021/08/02 01:05:09;;;;;;;3.40;2.70;;;;;;;18.66;100.00;96068.88;5017527;28;20455;-60
2021/08/02 01:07:42;;;;;;;2.65;2.40;;;;;;;18.27;100.00;96071.31;5017311;28;21515;-62
2021/08/02 01:10:14;;;;;;;3.50;2.72;;;;;;;18.17;100.00;96070.03;5022335;28;20436;-61
2021/08/02 01:12:46;;;;;;;3.00;2.45;;;;;;;17.89;100.00;96078.16;5019687;28;20062;-61
2021/08/02 01:15:15;;;;;;;3.22;2.63;;;;;;;17.70;100.00;96069.84;5027612;28;20068;-62
2021/08/02 01:17:47;;;;;;;6.85;3.20;;;;;;;18.21;100.00;96069.44;5022300;28;20068;-62
2021/08/02 01:20:16;;;;;;;4.75;2.70;;;;;;;18.32;100.00;96072.53;5027716;28;20084;-62
2021/08/02 01:22:46;;;;;;;3.92;2.80;;;;;;;17.82;100.00;96077.31;5020563;28;20084;-60
2021/08/02 01:25:57;;;;;;;4.32;2.75;;;;;;;18.31;100.00;96069.06;5020768;28;20069;-62
2021/08/02 01:29:08;;;;;;;3.70;2.97;;;;;;;17.87;100.00;96082.88;5023880;28;20554;-61
2021/08/02 01:31:37;;;;;;;7.75;3.17;;;;;;;18.31;100.00;96077.06;4970572;28;20041;-61
2021/08/02 01:34:05;;;;;;;4.43;2.80;;;;;;;17.87;100.00;96073.03;5022578;28;20072;-60
2021/08/02 01:36:34;;;;;;;5.32;3.30;;;;;;;18.24;100.00;96074.38;5021518;28;20065;-61
2021/08/02 01:39:04;;;;;;;3.67;3.20;;;;;;;18.35;100.00;96072.16;5021345;28;20091;-60
2021/08/02 01:41:32;;;;;;;4.28;3.10;;;;;;;18.66;100.00;96079.56;5020537;28;20100;-61
2021/08/02 01:44:01;;;;;;;5.10;3.47;;;;;;;18.17;100.00;96070.88;5022187;28;20569;-59
2021/08/02 01:46:36;;;;;;;4.60;3.10;;;;;;;18.67;100.00;96070.53;5021753;28;20362;-58
2021/08/02 01:49:10;;;;;;;5.50;3.17;;;;;;;18.79;100.00;96070.75;5023896;28;20452;-62
2021/08/02 01:51:41;;;;;;;8.30;3.28;;;;;;;18.85;100.00;96060.06;5023195;28;20073;-61
2021/08/02 01:54:25;;;;;;;6.05;3.40;;;;;;;18.66;100.00;96064.38;5000801;28;20045;-61
2021/08/02 01:56:58;;;;;;;8.07;3.95;;;;;;;18.35;100.00;96070.28;5028021;28;20061;-59
2021/08/02 01:59:30;;;;;;;4.78;3.20;;;;;;;18.95;100.00;96065.81;5025777;28;20080;-62
2021/08/02 02:02:02;;;;;;;6.20;3.47;;;;;;;18.59;100.00;96076.91;5023414;28;20096;-60
2021/08/02 02:04:33;;;;;;;7.10;3.33;;;;;;;18.66;100.00;96075.06;5020280;28;20641;-59
2021/08/02 02:07:03;;;;;;;4.82;3.63;;;;;;;18.93;100.00;96075.09;5028077;28;20065;-62
2021/08/02 02:09:36;;;;;;;6.95;3.28;;;;;;;18.60;100.00;96083.88;5028769;28;20703;-61
2021/08/02 02:12:05;;;;;;;6.28;3.22;;;;;;;18.65;100.00;96073.41;5019595;28;20060;-60
2021/08/02 02:14:38;;;;;;;10.02;3.67;;;;;;;18.21;100.00;96076.63;5005169;28;20148;-61
2021/08/02 02:17:08;;;;;;;5.68;3.55;;;;;;;18.67;100.00;96082.03;5018531;28;20057;-60
2021/08/02 02:19:37;;;;;;;4.18;3.55;;;;;;;18.25;100.00;96081.34;5018817;28;20457;-60
2021/08/02 02:22:06;;;;;;;5.38;3.40;;;;;;;18.61;100.00;96076.69;5019084;28;20066;-61
2021/08/02 02:24:38;;;;;;;6.05;3.72;;;;;;;18.64;100.00;96078.94;5006666;28;20061;-63
2021/08/02 02:27:07;;;;;;;6.88;3.28;;;;;;;18.38;100.00;96085.09;5023843;28;20531;-62
2021/08/02 02:29:35;;;;;;;5.43;3.28;;;;;;;18.99;100.00;96076.91;5023761;28;20037;-63
2021/08/02 02:32:05;;;;;;;4.97;3.45;;;;;;;18.57;100.00;96089.63;5028861;28;20057;-62
2021/08/02 02:34:36;;;;;;;10.52;3.95;;;;;;;18.25;100.00;96086.69;5028661;28;21284;-64
2021/08/02 02:37:05;;;;;;;5.93;3.28;;;;;;;18.44;100.00;96092.25;5025823;28;20072;-60
2021/08/02 02:39:35;;;;;;;10.35;3.67;;;;;;;18.18;100.00;96093.03;5023145;28;20061;-62
2021/08/02 02:42:05;;;;;;;4.97;3.65;;;;;;;18.96;100.00;96082.69;5028317;28;20069;-60
2021/08/02 02:44:34;;;;;;;5.60;3.80;;;;;;;19.35;100.00;96094.38;5019528;28;20067;-62
2021/08/02 02:47:03;;;;;;;3.95;3.55;;;;;;;19.09;100.00;96093.34;5029126;28;20092;-60
2021/08/02 02:49:32;;;;;;;5.20;3.60;;;;;;;18.51;100.00;96098.44;5025889;28;20479;-61
2021/08/02 02:52:01;;;;;;;6.88;3.67;;;;;;;18.72;100.00;96100.97;5025693;28;20505;-61
2021/08/02 02:54:29;;;;;;;6.05;3.63;;;;;;;18.61;100.00;96108.72;5020904;28;20080;-61
2021/08/02 02:56:59;;;;;;;5.15;3.80;;;;;;;18.86;100.00;96101.81;5021259;28;20079;-59
2021/08/02 02:59:28;;;;;;;6.85;3.60;;;;;;;18.64;100.00;96103.81;5022955;28;20507;-62
2021/08/02 03:01:58;;;;;;;6.30;3.65;;;;;;;18.68;100.00;96110.38;5032559;28;20085;-59
2021/08/02 03:04:32;;;;;;;6.50;3.80;;;;;;;18.56;100.00;96108.53;5019088;28;20068;-60
2021/08/02 03:07:03;;;;;;;5.88;3.63;;;;;;;18.44;100.00;96105.63;5024374;28;20065;-61
2021/08/02 03:09:36;;;;;;;5.28;3.63;;;;;;;18.40;100.00;96107.03;5029942;28;20077;-60
2021/08/02 03:12:07;;;;;;;10.73;4.00;;;;;;;18.16;100.00;96108.41;5023747;28;20062;-61
2021/08/02 03:14:36;;;;;;;5.50;3.88;;;;;;;18.41;100.00;96104.19;5023730;28;20069;-63
2021/08/02 03:17:09;;;;;;;6.37;3.83;;;;;;;18.41;100.00;96103.34;5028184;28;20062;-62
2021/08/02 03:19:39;;;;;;;6.20;3.78;;;;;;;18.79;100.00;96101.00;5010198;28;20077;-62
2021/08/02 03:22:13;;;;;;;6.07;4.10;;;;;;;19.11;100.00;96099.31;5024612;28;20104;-61
2021/08/02 03:24:44;;;;;;;5.18;3.97;;;;;;;19.01;100.00;96101.59;5021425;28;20069;-62
2021/08/02 03:27:22;;;;;;;6.43;4.30;;;;;;;18.89;100.00;96108.56;5024174;28;20069;-62
2021/08/02 03:29:51;;;;;;;4.93;3.88;;;;;;;18.64;100.00;96111.81;5022965;28;20076;-62
2021/08/02 03:32:22;;;;;;;9.50;4.45;;;;;;;18.84;100.00;96111.88;5020679;28;20571;-65
2021/08/02 03:34:54;;;;;;;5.93;4.47;;;;;;;19.03;100.00;96109.38;5021501;28;20089;-61
2021/08/02 03:37:25;;;;;;;6.03;4.22;;;;;;;19.08;100.00;96112.28;5022047;28;20062;-61
2021/08/02 03:39:54;;;;;;;7.05;4.60;;;;;;;19.42;100.00;96109.38;5023796;28;20077;-62
2021/08/02 03:42:24;;;;;;;6.78;4.72;;;;;;;19.25;100.00;96118.84;5021461;28;20080;-61
2021/08/02 03:44:53;;;;;;;5.15;4.25;;;;;;;18.72;100.00;96125.03;5020910;28;20038;-62
2021/08/02 03:47:21;;;;;;;9.18;4.78;;;;;;;19.47;100.00;96108.72;5025621;28;20080;-61
2021/08/02 03:49:50;;;;;;;6.57;4.90;;;;;;;19.77;100.00;96116.31;5027349;28;20073;-61
2021/08/02 03:52:18;;;;;;;7.95;5.03;;;;;;;19.49;100.00;96120.06;5027369;28;20069;-61
2021/08/02 03:54:47;;;;;;;6.05;4.97;;;;;;;19.13;100.00;96123.16;5030278;28;20052;-60
2021/08/02 03:57:16;;;;;;;8.52;5.28;;;;;;;18.79;100.00;96122.34;5024950;28;20072;-61
2021/08/02 03:59:47;;;;;;;5.65;4.70;;;;;;;18.62;100.00;96126.41;5021688;28;20095;-59
2021/08/02 04:02:15;;;;;;;5.80;4.68;;;;;;;19.03;100.00;96131.63;5018665;28;20092;-61
2021/08/02 04:04:44;;;;;;;6.15;4.30;;;;;;;18.65;100.00;96139.34;5028655;28;20461;-62
2021/08/02 04:07:12;;;;;;;8.43;4.68;;;;;;;18.58;100.00;96147.38;5024079;28;20495;-62
2021/08/02 04:09:40;;;;;;;8.95;4.63;;;;;;;18.50;100.00;96145.69;5019580;28;20092;-59
2021/08/02 04:12:10;;;;;;;7.57;4.80;;;;;;;18.61;100.00;96149.59;5026833;28;20065;-60
2021/08/02 04:14:38;;;;;;;6.15;4.22;;;;;;;18.42;100.00;96153.88;5023650;28;20068;-61
2021/08/02 04:17:13;;;;;;;7.32;5.00;;;;;;;18.66;100.00;96157.03;5020909;28;20096;-59
2021/08/02 04:19:41;;;;;;;6.63;4.80;;;;;;;19.52;100.00;96154.41;5027970;28;20523;-58
2021/08/02 04:22:10;;;;;;;5.68;4.90;;;;;;;19.36;100.00;96161.00;5028147;28;20539;-61
2021/08/02 04:24:38;;;;;;;10.25;4.68;;;;;;;20.62;100.00;96155.28;5026135;28;20061;-58
2021/08/02 04:27:06;;;;;;;6.75;4.47;;;;;;;21.14;100.00;96160.50;5024542;28;20073;-60
2021/08/02 04:29:35;;;;;;;10.57;4.78;;;;;;;20.73;100.00;96169.84;5027432;28;20535;-61
2021/08/02 04:32:04;;;;;;;6.50;4.30;;;;;;;20.20;100.00;96172.78;5030175;28;20083;-62
2021/08/02 04:34:34;;;;;;;5.68;4.10;;;;;;;20.45;100.00;96178.22;5020494;28;21586;-58
2021/08/02 04:37:02;;;;;;;6.43;4.57;;;;;;;19.34;100.00;96194.31;5022582;28;20061;-56
2021/08/02 04:39:31;;;;;;;8.27;4.90;;;;;;;19.68;100.00;96182.59;5030859;28;20072;-59
2021/08/02 04:41:59;;;;;;;12.02;4.97;;;;;;;20.11;100.00;96182.91;5027141;28;20428;-57
2021/08/02 04:44:27;;;;;;;9.85;5.40;;;;;;;19.91;100.00;96177.59;5025355;28;20074;-58
2021/08/02 04:46:56;;;;;;;6.47;5.82;;;;;;;21.66;100.00;96181.75;5029449;28;20130;-60
2021/08/02 04:49:24;;;;;;;6.15;5.55;;;;;;;21.99;100.00;96176.06;5021801;28;20464;-58
2021/08/02 04:51:54;;;;;;;5.68;5.10;;;;;;;22.72;100.00;96184.06;5025168;28;20081;-61
2021/08/02 04:54:22;;;;;;;6.00;5.05;;;;;;;23.22;100.00;96185.63;5020597;22;1136296;-59
2021/08/02 04:56:51;;;;;;;8.13;4.90;;;;;;;23.39;94.45;96183.09;5062505;28;20139;-57
2021/08/02 04:59:19;;;;;;;5.85;3.80;;;;;;;21.88;100.00;96185.66;5061744;28;20102;-57
2021/08/02 05:01:47;;;;;;;6.45;4.45;;;;;;;21.85;100.00;96185.28;5063464;28;20092;-55
2021/08/02 05:04:16;;;;;;;5.95;4.32;;;;;;;20.94;100.00;96192.00;5064905;28;20060;-54
2021/08/02 05:06:44;;;;;;;6.18;4.65;;;;;;;21.32;100.00;96184.69;5060063;28;20147;-57
2021/08/02 05:09:14;;;;;;;7.68;4.75;;;;;;;21.50;100.00;96183.94;5058454;28;20057;-58
2021/08/02 05:11:42;;;;;;;6.38;5.03;;;;;;;21.20;100.00;96183.78;5060603;28;20064;-59
2021/08/02 05:14:11;;;;;;;7.63;4.88;;;;;;;21.27;100.00;96184.53;5057572;28;20558;-58
2021/08/02 05:16:39;;;;;;;5.97;4.50;;;;;;;19.63;100.00;96193.09;5062135;28;20519;-55
2021/08/02 05:19:07;;;;;;;5.47;4.85;;;;;;;19.68;100.00;96191.47;5057847;28;20574;-58
2021/08/02 05:21:36;;;;;;;6.43;4.80;;;;;;;19.85;100.00;96191.81;5060414;28;20061;-60
2021/08/02 05:24:05;;;;;;;6.07;4.60;;;;;;;20.15;100.00;96191.31;5062340;28;20079;-55
2021/08/02 05:26:37;;;;;;;6.93;4.55;;;;;;;20.88;100.00;96188.31;5060909;28;20069;-53
2021/08/02 05:29:06;;;;;;;7.18;4.43;;;;;;;20.53;100.00;96188.72;5061062;28;20076;-55
2021/08/02 05:31:34;;;;;;;4.97;4.30;;;;;;;20.42;100.00;96196.59;5056618;28;20317;-56
2021/08/02 05:34:03;;;;;;;5.15;4.15;;;;;;;22.22;100.00;96183.47;5058238;28;20078;-57
2021/08/02 05:36:31;;;;;;;6.40;4.43;;;;;;;22.03;100.00;96186.13;5056834;28;20789;-57
2021/08/02 05:38:59;;;;;;;5.65;4.15;;;;;;;23.17;100.00;96182.84;5059867;28;20059;-58
2021/08/02 05:41:28;;;;;;;5.18;4.13;;;;;;;22.51;100.00;96185.38;5062290;28;20061;-56
2021/08/02 05:43:57;;;;;;;8.25;4.15;;;;;;;22.05;100.00;96181.34;5059295;28;20561;-56
2021/08/02 05:46:26;;;;;;;5.75;4.03;;;;;;;23.55;97.95;96178.91;5061956;28;20056;-58
2021/08/02 05:48:55;;;;;;;5.00;4.05;;;;;;;21.95;100.00;96175.66;5057282;28;20079;-57
2021/08/02 05:51:23;;;;;;;5.70;4.07;;;;;;;22.44;100.00;96181.16;5060381;28;20120;-56
2021/08/02 05:53:51;;;;;;;6.80;4.82;;;;;;;22.61;100.00;96178.63;5054158;28;20080;-58
2021/08/02 05:56:20;;;;;;;6.15;4.60;;;;;;;21.14;100.00;96178.47;5064226;28;20076;-56
2021/08/02 05:58:48;;;;;;;6.40;4.88;;;;;;;21.65;100.00;96183.63;5062220;28;20080;-57
2021/08/02 06:01:18;;;;;;;8.18;4.55;;;;;;;21.38;100.00;96177.69;5063855;28;20064;-57
2021/08/02 06:03:47;;;;;;;5.72;4.30;;;;;;;20.47;100.00;96186.84;5058336;28;20057;-56
2021/08/02 06:06:16;;;;;;;5.28;4.50;;;;;;;21.12;100.00;96191.25;5055257;28;20542;-57
2021/08/02 06:08:45;;;;;;;7.15;4.93;;;;;;;21.12;100.00;96194.75;5056876;28;20065;-57
2021/08/02 06:11:13;;;;;;;6.97;4.80;;;;;;;21.06;100.00;96199.13;5064808;28;20088;-58
2021/08/02 06:13:41;;;;;;;6.53;4.75;;;;;;;20.90;100.00;96190.78;5061271;28;20084;-57
2021/08/02 06:16:10;;;;;;;7.32;5.00;;;;;;;21.68;100.00;96204.66;5061010;28;20464;-59
2021/08/02 06:18:40;;;;;;;5.50;4.47;;;;;;;21.63;100.00;96206.34;5061378;28;20511;-58
2021/08/02 06:21:08;;;;;;;6.53;4.68;;;;;;;21.59;100.00;96211.34;5061067;28;20531;-58
2021/08/02 06:23:37;;;;;;;6.75;4.28;;;;;;;21.53;100.00;96210.34;5059441;28;20056;-58
2021/08/02 06:26:05;;;;;;;5.55;4.43;;;;;;;20.98;100.00;96212.78;5058323;28;20072;-58
2021/08/02 06:28:34;;;;;;;5.97;4.38;;;;;;;22.03;100.00;96210.28;5063188;28;20315;-60
2021/08/02 06:31:02;;;;;;;4.70;3.85;;;;;;;21.94;100.00;96208.94;5059711;28;20068;-57
2021/08/02 06:33:31;;;;;;;8.38;4.57;;;;;;;22.54;100.00;96210.13;5061255;28;20099;-57
2021/08/02 06:36:00;;;;;;;5.88;4.00;;;;;;;22.13;100.00;96208.97;5059967;28;20060;-58
2021/08/02 06:38:32;;;;;;;6.22;4.18;;;;;;;23.01;100.00;96207.69;5060707;28;20064;-58
2021/08/02 06:41:00;;;;;;;5.75;4.07;;;;;;;22.51;100.00;96214.94;5064026;28;20107;-57
2021/08/02 06:43:29;;;;;;;6.40;4.18;;;;;;;23.21;100.00;96221.66;5058019;28;20087;-57
2021/08/02 06:45:57;;;;;;;6.10;4.10;;;;;;;23.07;100.00;96220.22;5061838;28;20060;-59
2021/08/02 06:48:26;;;;;;;5.78;3.97;;;;;;;22.61;100.00;96218.94;5061715;28;20060;-57
2021/08/02 06:50:54;;;;;;;5.15;3.83;;;;;;;22.61;100.00;96224.31;5055948;28;20450;-58
2021/08/02 06:53:24;;;;;;;5.03;3.70;;;;;;;22.25;100.00;96226.81;5061641;28;20199;-56
2021/08/02 06:55:52;;;;;;;6.05;3.60;;;;;;;22.26;100.00;96230.31;5064711;28;20076;-57
2021/08/02 06:58:21;;;;;;;6.07;3.90;;;;;;;22.93;100.00;96235.72;5061345;28;20071;-56
2021/08/02 07:00:49;;;;;;;6.32;3.78;;;;;;;21.88;100.00;96235.84;5061149;28;20071;-59
2021/08/02 07:03:18;;;;;;;5.32;3.88;;;;;;;21.78;100.00;96244.41;5060235;28;20068;-56
2021/08/02 07:05:46;;;;;;;5.40;3.85;;;;;;;22.42;100.00;96239.66;5060426;28;20072;-54
2021/08/02 07:08:15;;;;;;;5.22;4.00;;;;;;;22.37;100.00;96240.34;5059288;28;20083;-57
2021/08/02 07:10:44;;;;;;;5.60;4.03;;;;;;;22.75;100.00;96236.56;5061446;28;21719;-58
2021/08/02 07:13:13;;;;;;;5.35;3.85;;;;;;;22.34;100.00;96242.66;5061880;28;20493;-56
2021/08/02 07:15:42;;;;;;;5.13;3.72;;;;;;;22.20;100.00;96241.97;5064872;28;20072;-58
2021/08/02 07:18:11;;;;;;;7.38;4.28;;;;;;;22.47;100.00;96243.31;5060908;28;20141;-57
2021/08/02 07:20:39;;;;;;;5.82;3.83;;;;;;;23.03;100.00;96245.94;5059864;28;20068;-55
2021/08/02 07:23:08;;;;;;;5.40;3.95;;;;;;;23.02;100.00;96245.13;5059932;28;20463;-58
2021/08/02 07:25:37;;;;;;;4.88;4.07;;;;;;;23.53;100.00;96241.03;5065730;28;20181;-58
2021/08/02 07:28:07;;;;;;;7.97;4.05;;;;;;;22.79;100.00;96242.31;5063431;28;20482;-57
2021/08/02 07:30:35;;;;;;;6.90;3.92;;;;;;;22.87;100.00;96245.47;5062229;28;20081;-58
2021/08/02 07:33:04;;;;;;;5.82;4.30;;;;;;;23.59;100.00;96245.50;5062089;28;20447;-56
2021/08/02 07:35:32;;;;;;;5.03;3.70;;;;;;;23.67;100.00;96250.59;5061086;28;20166;-57
2021/08/02 07:38:01;;;;;;;5.80;3.90;;;;;;;24.23;92.81;96242.97;5069002;28;20084;-57
2021/08/02 07:40:29;;;;;;;4.63;3.60;;;;;;;23.63;87.16;96252.03;5063057;28;20075;-58
2021/08/02 07:42:57;;;;;;;5.25;3.70;;;;;;;23.51;94.64;96251.22;5064939;28;20068;-58
2021/08/02 07:45:27;;;;;;;5.00;3.28;;;;;;;23.58;93.14;96243.03;5063893;28;20068;-59
2021/08/02 07:47:56;;;;;;;5.05;3.90;;;;;;;25.48;82.47;96240.56;5063827;28;20060;-58
2021/08/02 07:50:24;;;;;;;5.35;3.42;;;;;;;24.68;81.06;96249.59;5060416;28;20076;-57
2021/08/02 07:52:52;;;;;;;5.10;3.72;;;;;;;24.62;80.97;96243.28;5062426;28;20076;-58
2021/08/02 07:55:21;;;;;;;6.47;3.97;;;;;;;25.92;76.56;96235.38;5062950;28;20549;-55
2021/08/02 07:57:49;;;;;;;3.83;3.42;;;;;;;25.28;70.86;96239.16;5058107;28;20068;-58
2021/08/02 08:00:17;;;;;;;7.15;3.30;;;;;;;24.16;88.17;96239.59;5059006;28;20072;-57
2021/08/02 08:02:48;;;;;;;4.25;3.45;;;;;;;25.21;81.37;96232.28;5061627;28;20060;-58
2021/08/02 08:05:17;;;;;;;3.78;2.95;;;;;;;25.60;73.35;96238.59;5059783;28;20091;-58
2021/08/02 08:07:47;;;;;;;6.38;3.47;;;;;;;24.80;79.61;96239.56;5060993;28;20075;-58
2021/08/02 08:10:16;;;;;;;5.87;3.07;;;;;;;24.93;79.53;96239.28;5062696;28;20095;-59
2021/08/02 08:12:45;;;;;;;6.05;3.55;;;;;;;23.93;91.50;96243.09;5063284;28;20064;-57
2021/08/02 08:15:14;;;;;;;5.75;3.58;;;;;;;24.42;84.23;96237.44;5058041;28;20072;-57
2021/08/02 08:17:43;;;;;;;4.70;3.28;;;;;;;25.03;80.55;96238.66;5060580;28;20072;-57
2021/08/02 08:20:14;;;;;;;5.03;3.40;;;;;;;24.54;87.96;96240.97;5060076;28;20080;-58
2021/08/02 08:22:43;;;;;;;4.40;3.40;;;;;;;25.17;78.92;96242.75;5061602;28;20088;-57
2021/08/02 08:25:13;;;;;;;6.00;3.88;;;;;;;25.50;74.99;96238.47;5063174;28;20068;-57
2021/08/02 08:27:41;;;;;;;5.10;3.83;;;;;;;25.14;78.90;96240.53;5060228;28;20068;-58
2021/08/02 08:30:11;;;;;;;4.35;3.40;;;;;;;24.78;82.71;96242.53;5061912;28;20068;-58
2021/08/02 08:32:40;;;;;;;8.18;3.80;;;;;;;24.27;88.30;96237.94;5062292;28;20079;-58
2021/08/02 08:35:10;;;;;;;5.80;3.90;;;;;;;23.92;96.73;96244.97;5057446;28;20466;-58
2021/08/02 08:37:41;;;;;;;4.70;3.88;;;;;;;25.16;83.41;96243.00;5067352;28;20068;-59
2021/08/02 08:40:10;;;;;;;;;;;;;;;24.28;86.61;96245.75;5064710;28;20068;-59
2021/08/02 08:42:40;;;;;;;6.70;3.25;;;;;;;24.77;86.55;96248.94;5062405;28;19951;-59
2021/08/02 08:45:11;;;;;;;3.72;2.92;;;;;;;25.08;80.02;96247.66;5063029;28;20068;-54
2021/08/02 08:47:39;;;;;;;3.95;3.03;;;;;;;24.08;87.31;96253.38;5062841;28;20072;-59
2021/08/02 08:50:09;;;;;;;3.78;3.00;;;;;;;25.58;77.99;96249.66;5061809;28;20084;-59
2021/08/02 08:52:38;;;;;;;;;;;;;;;25.08;77.67;96252.25;5061524;28;20071;-61
2021/08/02 08:55:10;;;;;;;4.82;3.35;;;;;;;24.94;77.56;96253.59;5059131;28;19982;-58
2021/08/02 08:57:39;;;;;;;4.35;3.17;;;;;;;24.26;79.67;96261.38;5061145;28;20451;-56
2021/08/02 09:00:19;;;;;;;5.00;3.72;;;;;;;24.69;84.13;96257.44;5059208;28;20087;-56
2021/08/02 09:02:48;;;;;;;6.10;3.42;;;;;;;24.33;84.48;96256.66;5061544;28;20063;-59
2021/08/02 09:05:17;;;;;;;6.28;3.53;;;;;;;24.23;91.28;96261.00;5058847;28;20091;-58
2021/08/02 09:07:46;;;;;;;3.78;3.22;;;;;;;25.22;83.94;96250.09;5066646;28;20084;-58
2021/08/02 09:10:18;;;;;;;7.57;3.80;;;;;;;25.32;79.28;96261.91;5063346;28;20087;-60
2021/08/02 09:12:52;;;;;;;5.07;3.22;;;;;;;25.62;71.89;96252.69;5063110;28;20090;-59
2021/08/02 09:15:32;;;;;;;4.30;3.00;;;;;;;24.48;82.83;96258.88;5063125;28;20527;-59
2021/08/02 09:18:01;;;;;;;3.67;2.60;;;;;;;24.63;82.75;96250.28;5059883;28;20048;-58
2021/08/02 09:20:29;;;;;;;7.47;3.50;;;;;;;26.09;68.54;96257.78;5063830;28;20063;-58
2021/08/02 09:23:09;;;;;;;5.10;3.28;;;;;;;25.46;70.94;96258.88;5062912;28;20083;-58
2021/08/02 09:25:47;;;;;;;5.35;3.17;;;;;;;25.73;69.65;96254.50;5057401;28;20060;-58
2021/08/02 09:28:18;;;;;;;4.22;3.05;;;;;;;25.68;66.04;96267.94;5054373;28;20069;-57
2021/08/02 09:30:55;;;;;;;3.80;2.83;;;;;;;26.15;65.25;96264.91;5053340;28;20069;-56
2021/08/02 09:33:24;;;;;;;3.38;2.53;;;;;;;26.45;61.99;96271.78;5054757;28;20091;-58
2021/08/02 09:35:52;;;;;;;3.88;2.80;;;;;;;26.70;59.05;96265.91;5061993;28;20525;-57
2021/08/02 09:38:23;;;;;;;4.07;2.92;;;;;;;26.44;57.90;96265.56;5060310;28;20076;-56
2021/08/02 09:40:55;;;;;;;3.83;2.80;;;;;;;25.85;62.61;96261.75;5058749;28;20708;-54
2021/08/02 09:43:27;;;;;;;4.28;2.55;;;;;;;27.06;57.18;96263.66;5056830;28;20073;-57
2021/08/02 09:46:16;;;;;;;5.82;2.92;;;;;;;27.83;53.58;96262.53;5061825;28;20071;-57
2021/08/02 09:48:46;;;;;;;6.05;3.03;;;;;;;27.56;55.83;96267.97;5059641;28;20510;-58
2021/08/02 09:51:16;;;;;;;3.72;2.70;;;;;;;27.16;54.76;96264.59;5054371;28;20073;-58
2021/08/02 09:53:45;;;;;;;;;;;;;;;26.17;57.44;96268.16;5059435;28;20067;-57
2021/08/02 09:56:16;;;;;;;4.13;2.80;;;;;;;25.87;59.22;96257.72;5052876;28;19960;-59
2021/08/02 09:59:02;;;;;;;4.45;3.03;;;;;;;27.38;53.18;96263.75;5063987;28;20084;-56
2021/08/02 10:01:31;;;;;;;3.50;3.20;;;;;;;27.17;52.93;96257.28;5064852;28;20064;-58
2021/08/02 10:04:00;;;;;;;4.00;3.30;;;;;;;27.00;52.81;96262.78;5061283;28;20061;-55
2021/08/02 10:06:29;;;;;;;5.70;3.20;;;;;;;27.93;53.21;96259.91;5059195;28;20072;-58
2021/08/02 10:08:58;;;;;;;3.45;2.55;;;;;;;27.90;52.42;96260.41;5056675;28;20620;-57
2021/08/02 10:11:30;;;;;;;4.10;2.88;;;;;;;28.41;46.26;96268.13;5059861;28;20194;-56
2021/08/02 10:13:59;;;;;;;3.38;2.60;;;;;;;29.44;45.44;96248.41;5057517;28;20478;-57
2021/08/02 10:16:28;;;;;;;4.53;2.58;;;;;;;27.06;50.88;96264.47;5058321;28;20068;-58
2021/08/02 10:19:03;;;;;;;4.90;2.70;;;;;;;26.91;50.66;96257.00;5055876;28;20518;-57
2021/08/02 10:21:39;;;;;;;3.00;2.70;;;;;;;27.90;51.91;96255.00;5058885;28;20064;-57
2021/08/02 10:24:09;;;;;;;3.50;2.65;;;;;;;28.12;45.87;96254.91;5057870;28;20060;-57
2021/08/02 10:26:40;;;;;;;4.15;2.53;;;;;;;27.79;50.47;96254.09;5060431;28;20068;-55
2021/08/02 10:29:09;;;;;;;3.65;2.58;;;;;;;28.06;48.92;96256.75;5063058;28;20091;-59
2021/08/02 10:31:45;;;;;;;4.72;2.58;;;;;;;26.70;53.19;96253.25;5062925;28;20084;-59
2021/08/02 10:34:15;;;;;;;4.47;2.67;;;;;;;27.06;52.23;96247.41;5055978;28;20056;-54
2021/08/02 10:36:44;;;;;;;3.90;2.50;;;;;;;26.19;50.51;96239.00;5052809;28;20076;-58
2021/08/02 10:39:21;;;;;;;2.95;2.15;;;;;;;28.29;47.43;96236.56;5059195;28;20076;-56
2021/08/02 10:41:51;;;;;;;4.03;2.42;;;;;;;26.97;50.07;96236.22;5058600;28;20069;-58
2021/08/02 10:44:20;;;;;;;5.10;2.65;;;;;;;28.00;49.17;96227.16;5051241;28;20076;-57
2021/08/02 10:46:49;;;;;;;4.30;2.57;;;;;;;28.35;49.11;96224.63;5053920;28;20488;-56
2021/08/02 10:49:17;;;;;;;3.22;2.30;;;;;;;29.20;44.32;96216.31;5058712;28;20487;-58
2021/08/02 10:51:47;;;;;;;3.30;2.20;;;;;;;28.80;45.91;96219.72;5055939;28;20075;-58
2021/08/02 10:54:16;;;;;;;5.07;2.50;;;;;;;28.00;45.08;96213.59;5058289;28;20064;-57
2021/08/02 10:56:48;;;;;;;3.15;1.90;;;;;;;27.53;46.63;96217.00;5065300;28;20064;-56
2021/08/02 10:59:18;;;;;;;4.35;1.90;;;;;;;28.11;44.34;96210.72;5067615;28;20076;-58
2021/08/02 11:01:48;;;;;;;2.33;2.13;;;;;;;28.18;45.49;96199.59;5057276;28;20080;-58
2021/08/02 11:04:18;;;;;;;3.00;2.50;;;;;;;28.59;46.97;96211.50;5058603;28;20484;-59
2021/08/02 11:06:47;;;;;;;4.07;2.45;;;;;;;28.75;45.47;96196.09;5061859;28;20550;-59
2021/08/02 11:09:27;;;;;;;3.40;2.63;;;;;;;26.98;50.47;96214.31;5063695;28;20075;-59
2021/08/02 11:12:03;;;;;;;4.22;2.72;;;;;;;27.89;49.87;96208.09;5063930;28;20060;-59
2021/08/02 11:14:33;;;;;;;2.95;2.65;;;;;;;28.65;45.63;96200.66;5055963;28;20067;-58
2021/08/02 11:17:02;;;;;;;;;;;;;;;28.17;48.69;96204.22;5064770;28;20569;-58
2021/08/02 11:19:32;;;;;;;2.95;2.30;;;;;;;28.36;47.28;96206.50;5060703;28;19963;-58
2021/08/02 11:22:05;;;;;;;4.50;2.30;;;;;;;28.42;nan;96208.16;5066211;28;20069;-58
2021/08/02 11:24:35;;;;;;;2.83;2.35;;;;;;;26.87;52.03;96212.56;5063692;28;20949;-59
2021/08/02 11:27:05;;;;;;;5.38;2.30;;;;;;;28.54;49.42;96202.53;5066047;28;20064;-57
2021/08/02 11:29:37;;;;;;;3.38;2.25;;;;;;;27.93;47.84;96205.69;5066334;28;20060;-59
2021/08/02 11:32:08;;;;;;;2.33;2.08;;;;;;;28.65;46.70;96201.47;5061411;28;20075;-58
2021/08/02 11:34:37;;;;;;;3.20;2.05;;;;;;;28.96;45.06;96196.97;5058765;28;21545;-59
2021/08/02 11:37:07;;;;;;;3.55;2.20;;;;;;;28.33;48.02;96201.59;5055462;28;20065;-58
2021/08/02 11:39:37;;;;;;;2.90;2.38;;;;;;;28.20;46.23;96194.75;5063257;28;20063;-58
2021/08/02 11:42:07;;;;;;;4.03;2.33;;;;;;;27.45;50.30;96191.22;5057883;28;20057;-54
2021/08/02 11:44:38;;;;;;;3.38;2.33;;;;;;;27.70;47.27;96198.72;5063833;28;20060;-59